createdAt,value
2023-02-13T00:00:04.557Z,0
2023-02-13T00:01:44.475Z,0
2023-02-13T00:03:24.149Z,0
2023-02-13T00:05:03.812Z,0
2023-02-13T00:06:43.647Z,0
2023-02-13T00:08:23.498Z,0
2023-02-13T00:10:03.158Z,0
2023-02-13T00:11:42.967Z,0
2023-02-13T00:13:22.766Z,0
2023-02-13T00:16:42.230Z,0
2023-02-13T00:18:22.101Z,0
2023-02-13T00:20:02.089Z,0
2023-02-13T00:21:41.387Z,0
2023-02-13T00:23:21.307Z,0
2023-02-13T00:25:01.148Z,0
2023-02-13T00:26:40.867Z,0
2023-02-13T00:28:20.615Z,0
2023-02-13T00:30:00.379Z,0
2023-02-13T00:31:40.093Z,0
2023-02-13T00:33:19.911Z,0
2023-02-13T00:34:59.594Z,0
2023-02-13T00:36:39.443Z,0
2023-02-13T00:38:19.155Z,0
2023-02-13T00:39:58.922Z,0
2023-02-13T00:41:38.602Z,0
2023-02-13T00:43:18.462Z,0
2023-02-13T00:44:58.255Z,0
2023-02-13T00:46:37.988Z,0
2023-02-13T00:48:17.834Z,0
2023-02-13T00:49:57.532Z,0
2023-02-13T00:51:37.125Z,0
2023-02-13T00:53:17.071Z,0
2023-02-13T00:54:56.806Z,0
2023-02-13T00:56:36.617Z,0
2023-02-13T00:58:16.358Z,0
2023-02-13T00:59:55.944Z,0
2023-02-13T01:01:35.869Z,0
2023-02-13T01:03:15.506Z,0
2023-02-13T01:04:55.445Z,0
2023-02-13T01:06:35.198Z,0
2023-02-13T01:08:14.975Z,0
2023-02-13T01:09:54.694Z,0
2023-02-13T01:11:34.479Z,0
2023-02-13T01:13:14.303Z,0
2023-02-13T01:14:53.999Z,0
2023-02-13T01:16:33.750Z,0
2023-02-13T01:18:13.479Z,0
2023-02-13T01:19:53.265Z,0
2023-02-13T01:23:12.794Z,0
2023-02-13T01:24:52.623Z,0
2023-02-13T01:26:32.340Z,0
2023-02-13T01:28:12.094Z,0
2023-02-13T01:29:51.917Z,0
2023-02-13T01:31:31.654Z,0
2023-02-13T01:33:11.515Z,0
2023-02-13T01:34:51.168Z,0
2023-02-13T01:36:30.762Z,0
2023-02-13T01:38:10.703Z,0
2023-02-13T01:39:50.466Z,0
2023-02-13T01:41:30.243Z,0
2023-02-13T01:43:09.968Z,0
2023-02-13T01:44:49.701Z,0
2023-02-13T01:46:29.474Z,0
2023-02-13T01:48:09.247Z,0
2023-02-13T01:49:49.037Z,0
2023-02-13T01:51:28.769Z,0
2023-02-13T01:53:08.570Z,0
2023-02-13T01:54:48.211Z,0
2023-02-13T01:56:28.057Z,0
2023-02-13T01:58:07.828Z,0
2023-02-13T01:59:47.636Z,0
2023-02-13T02:01:27.374Z,0
2023-02-13T02:03:07.166Z,0
2023-02-13T02:04:46.932Z,0
2023-02-13T02:06:26.649Z,0
2023-02-13T02:08:06.347Z,0
2023-02-13T02:09:46.190Z,0
2023-02-13T02:11:25.896Z,0
2023-02-13T02:13:05.691Z,0
2023-02-13T02:14:45.475Z,0
2023-02-13T02:16:25.430Z,0
2023-02-13T02:18:04.956Z,0
2023-02-13T02:19:44.631Z,0
2023-02-13T02:21:24.380Z,0
2023-02-13T02:23:04.212Z,0
2023-02-13T02:24:44.017Z,0
2023-02-13T02:26:23.660Z,0
2023-02-13T02:28:03.469Z,0
2023-02-13T02:29:43.228Z,0
2023-02-13T02:31:23.035Z,0
2023-02-13T02:33:02.735Z,0
2023-02-13T02:34:42.485Z,0
2023-02-13T02:36:22.312Z,0
2023-02-13T02:38:02.030Z,0
2023-02-13T02:39:41.791Z,0
2023-02-13T02:41:21.558Z,0
2023-02-13T02:43:01.314Z,0
2023-02-13T02:44:41.129Z,0
2023-02-13T02:46:20.837Z,0
2023-02-13T02:48:00.709Z,0
2023-02-13T02:49:40.446Z,0
2023-02-13T02:51:20.116Z,0
2023-02-13T02:52:59.943Z,0
2023-02-13T02:54:39.669Z,0
2023-02-13T02:56:19.420Z,0
2023-02-13T02:57:59.201Z,0
2023-02-13T02:59:38.963Z,0
2023-02-13T03:01:18.767Z,0
2023-02-13T03:02:58.594Z,0
2023-02-13T03:04:38.234Z,0
2023-02-13T03:06:18.045Z,0
2023-02-13T03:07:57.773Z,0
2023-02-13T03:09:37.561Z,0
2023-02-13T03:11:17.360Z,0
2023-02-13T03:12:57.055Z,0
2023-02-13T03:16:16.602Z,0
2023-02-13T03:17:56.349Z,0
2023-02-13T03:19:36.169Z,0
2023-02-13T03:21:15.876Z,0
2023-02-13T03:22:55.638Z,0
2023-02-13T03:24:35.403Z,0
2023-02-13T03:26:15.200Z,0
2023-02-13T03:27:54.924Z,0
2023-02-13T03:29:34.704Z,0
2023-02-13T03:31:14.459Z,0
2023-02-13T03:32:54.213Z,0
2023-02-13T03:34:33.975Z,0
2023-02-13T03:36:13.816Z,0
2023-02-13T03:37:53.503Z,0
2023-02-13T03:39:33.278Z,0
2023-02-13T03:41:13.057Z,0
2023-02-13T03:42:52.888Z,0
2023-02-13T03:44:32.572Z,0
2023-02-13T03:46:12.380Z,0
2023-02-13T03:47:52.164Z,0
2023-02-13T03:49:31.853Z,0
2023-02-13T03:51:11.634Z,0
2023-02-13T03:52:51.408Z,0
2023-02-13T03:54:31.147Z,0
2023-02-13T03:56:10.917Z,0
2023-02-13T03:57:50.690Z,0
2023-02-13T03:59:30.471Z,0
2023-02-13T04:01:10.204Z,0
2023-02-13T04:02:50.113Z,0
2023-02-13T04:04:29.720Z,0
2023-02-13T04:06:09.540Z,0
2023-02-13T04:09:29.026Z,0
2023-02-13T04:11:08.920Z,0
2023-02-13T04:12:48.548Z,0
2023-02-13T04:14:28.360Z,0
2023-02-13T04:16:08.171Z,0
2023-02-13T04:17:47.868Z,0
2023-02-13T04:19:27.750Z,0
2023-02-13T04:21:07.386Z,0
2023-02-13T04:22:47.128Z,0
2023-02-13T04:26:06.663Z,0
2023-02-13T04:27:46.423Z,0
2023-02-13T04:29:26.205Z,0
2023-02-13T04:31:05.944Z,0
2023-02-13T04:32:45.715Z,0
2023-02-13T04:34:25.580Z,0
2023-02-13T04:36:05.233Z,0
2023-02-13T04:37:45.010Z,0
2023-02-13T04:39:24.772Z,0
2023-02-13T04:41:04.694Z,0
2023-02-13T04:42:44.371Z,0
2023-02-13T04:44:24.111Z,0
2023-02-13T04:46:03.823Z,0
2023-02-13T04:47:43.594Z,0
2023-02-13T04:49:23.388Z,0
2023-02-13T04:51:03.273Z,0
2023-02-13T04:52:42.928Z,0
2023-02-13T04:54:22.662Z,0
2023-02-13T04:56:02.457Z,0
2023-02-13T04:57:42.181Z,0
2023-02-13T04:59:21.982Z,0
2023-02-13T05:01:01.867Z,0
2023-02-13T05:02:41.459Z,0
2023-02-13T05:04:21.227Z,0
2023-02-13T05:06:00.996Z,0
2023-02-13T05:07:40.760Z,0
2023-02-13T05:09:20.526Z,0
2023-02-13T05:11:00.469Z,0
2023-02-13T05:12:40.216Z,0
2023-02-13T05:14:19.813Z,0
2023-02-13T05:15:59.615Z,0
2023-02-13T05:17:39.578Z,0
2023-02-13T05:19:19.117Z,0
2023-02-13T05:20:59.032Z,0
2023-02-13T05:22:38.657Z,0
2023-02-13T05:24:18.501Z,0
2023-02-13T05:25:58.224Z,0
2023-02-13T05:27:37.929Z,0
2023-02-13T05:29:17.710Z,0
2023-02-13T05:30:57.635Z,0
2023-02-13T05:32:37.259Z,0
2023-02-13T05:34:17.006Z,0
2023-02-13T05:35:56.742Z,0
2023-02-13T05:37:36.507Z,0
2023-02-13T05:39:16.370Z,0
2023-02-13T05:40:56.260Z,0
2023-02-13T05:42:35.922Z,0
2023-02-13T05:44:15.729Z,0
2023-02-13T05:45:55.473Z,0
2023-02-13T05:47:35.210Z,0
2023-02-13T05:49:14.889Z,0
2023-02-13T05:50:54.612Z,0
2023-02-13T05:52:34.504Z,0
2023-02-13T05:54:14.250Z,0
2023-02-13T05:55:53.930Z,0
2023-02-13T05:57:33.669Z,0
2023-02-13T05:59:13.594Z,0
2023-02-13T06:00:53.300Z,0
2023-02-13T06:02:33.156Z,0
2023-02-13T06:04:12.760Z,0
2023-02-13T06:05:52.496Z,0
2023-02-13T06:07:32.255Z,0
2023-02-13T06:09:12.007Z,0
2023-02-13T06:10:51.919Z,0
2023-02-13T06:12:31.586Z,0
2023-02-13T06:14:11.359Z,0
2023-02-13T06:15:51.139Z,0
2023-02-13T06:17:30.878Z,0
2023-02-13T06:19:10.615Z,0
2023-02-13T06:20:50.521Z,0
2023-02-13T06:22:30.116Z,0
2023-02-13T06:24:09.956Z,0
2023-02-13T06:25:49.712Z,0
2023-02-13T06:27:29.560Z,0
2023-02-13T06:29:09.301Z,0
2023-02-13T06:30:48.940Z,0
2023-02-13T06:32:28.719Z,0
2023-02-13T06:34:08.582Z,0
2023-02-13T06:35:48.246Z,0
2023-02-13T06:37:28.019Z,0
2023-02-13T06:39:07.808Z,0
2023-02-13T06:40:47.712Z,0
2023-02-13T06:42:27.405Z,0
2023-02-13T06:44:07.216Z,0
2023-02-13T06:45:46.814Z,0
2023-02-13T06:47:26.746Z,0
2023-02-13T06:49:06.450Z,0
2023-02-13T06:50:46.282Z,0
2023-02-13T06:52:25.982Z,0
2023-02-13T06:54:05.847Z,0
2023-02-13T06:55:45.616Z,0
2023-02-13T06:57:25.272Z,0
2023-02-13T06:59:05.178Z,0
2023-02-13T07:00:44.808Z,0
2023-02-13T07:02:24.602Z,0.01
2023-02-13T07:04:04.216Z,0
2023-02-13T07:05:44.148Z,0
2023-02-13T07:07:23.851Z,0
2023-02-13T07:09:03.683Z,0
2023-02-13T07:12:23.059Z,0
2023-02-13T07:14:02.869Z,0.01
2023-02-13T07:15:42.700Z,0.01
2023-02-13T07:17:22.454Z,0.01
2023-02-13T07:19:02.184Z,0.01
2023-02-13T07:20:41.929Z,0.02
2023-02-13T07:22:21.623Z,0.02
2023-02-13T07:24:01.442Z,0.02
2023-02-13T07:25:41.319Z,0.02
2023-02-13T07:27:21.074Z,0.02
2023-02-13T07:29:00.715Z,0.03
2023-02-13T07:30:40.441Z,0.03
2023-02-13T07:32:20.330Z,0.02
2023-02-13T07:34:00.162Z,0.03
2023-02-13T07:35:39.806Z,0.03
2023-02-13T07:37:19.635Z,0.03
2023-02-13T07:38:59.536Z,0.05
2023-02-13T07:40:39.213Z,0.05
2023-02-13T07:42:18.794Z,0.05
2023-02-13T07:43:58.567Z,0.05
2023-02-13T07:45:38.469Z,0.04
2023-02-13T07:47:18.158Z,0.05
2023-02-13T07:48:58.005Z,0.05
2023-02-13T07:50:37.787Z,0.05
2023-02-13T07:52:17.397Z,0.06
2023-02-13T07:53:57.247Z,0.05
2023-02-13T07:55:37.103Z,0.07
2023-02-13T07:57:16.727Z,0.07
2023-02-13T07:58:56.571Z,0.07
2023-02-13T08:00:36.290Z,0.06
2023-02-13T08:02:15.954Z,0.06
2023-02-13T08:03:55.842Z,0.07
2023-02-13T08:05:35.644Z,0.07
2023-02-13T08:07:15.351Z,0.07
2023-02-13T08:08:55.014Z,0.07
2023-02-13T08:10:34.915Z,0.09
2023-02-13T08:12:14.616Z,0.08
2023-02-13T08:13:54.473Z,0.08
2023-02-13T08:15:34.205Z,0.09
2023-02-13T08:18:53.741Z,0.08
2023-02-13T08:20:33.467Z,0.09
2023-02-13T08:22:13.104Z,0.1
2023-02-13T08:23:53.028Z,0.11
2023-02-13T08:25:32.785Z,0.11
2023-02-13T08:27:12.573Z,0.12
2023-02-13T08:28:52.200Z,0.11
2023-02-13T08:30:32.063Z,0.1
2023-02-13T08:32:11.850Z,0.1
2023-02-13T08:35:31.296Z,0.12
2023-02-13T08:37:11.176Z,0.13
2023-02-13T08:38:50.936Z,0.14
2023-02-13T08:40:30.667Z,0.15
2023-02-13T08:42:10.421Z,0.15
2023-02-13T08:43:50.251Z,0.16
2023-02-13T08:45:29.861Z,0.17
2023-02-13T08:47:09.565Z,0.16
2023-02-13T08:48:49.397Z,0.17
2023-02-13T08:50:29.174Z,0.16
2023-02-13T08:52:08.860Z,0.17
2023-02-13T08:53:48.687Z,0.17
2023-02-13T08:55:28.558Z,0.18
2023-02-13T08:57:08.253Z,0.18
2023-02-13T08:58:47.941Z,0.17
2023-02-13T09:00:27.801Z,0.14
2023-02-13T09:02:07.595Z,0.14
2023-02-13T09:03:47.407Z,0.13
2023-02-13T09:05:27.014Z,0.12
2023-02-13T09:07:06.754Z,0.12
2023-02-13T09:08:46.520Z,0.13
2023-02-13T09:10:26.297Z,0.14
2023-02-13T09:12:06.052Z,0.14
2023-02-13T09:13:47.724Z,0.14
2023-02-13T09:15:25.564Z,0.13
2023-02-13T09:17:05.323Z,0.11
2023-02-13T09:18:45.101Z,0.09
2023-02-13T09:20:24.841Z,0.1
2023-02-13T09:22:04.608Z,0.09
2023-02-13T09:23:44.398Z,0.09
2023-02-13T09:25:24.166Z,0.09
2023-02-13T09:27:03.936Z,0.09
2023-02-13T09:28:43.840Z,0.11
2023-02-13T09:30:23.432Z,0.13
2023-02-13T09:32:03.297Z,0.13
2023-02-13T09:33:42.973Z,0.15
2023-02-13T09:35:22.736Z,0.14
2023-02-13T09:37:02.496Z,0.14
2023-02-13T09:38:42.272Z,0.16
2023-02-13T09:42:01.811Z,0.13
2023-02-13T09:43:41.553Z,0.18
2023-02-13T09:45:21.317Z,0.2
2023-02-13T09:47:01.090Z,0.21
2023-02-13T09:48:40.860Z,0.18
2023-02-13T09:50:20.617Z,0.13
2023-02-13T09:52:00.381Z,0.09
2023-02-13T09:53:40.189Z,0.1
2023-02-13T09:55:19.933Z,0.14
2023-02-13T09:56:59.676Z,0.18
2023-02-13T09:58:39.442Z,0.17
2023-02-13T10:00:19.193Z,0.18
2023-02-13T10:01:58.962Z,0.17
2023-02-13T10:03:38.729Z,0.23
2023-02-13T10:05:18.504Z,0.2
2023-02-13T10:06:58.352Z,0.19
2023-02-13T10:08:38.171Z,0.28
2023-02-13T10:10:17.780Z,0.14
2023-02-13T10:11:57.695Z,0.16
2023-02-13T10:13:37.303Z,0.12
2023-02-13T10:15:17.087Z,0.12
2023-02-13T10:16:56.829Z,0.12
2023-02-13T10:18:36.599Z,0.12
2023-02-13T10:20:16.402Z,0.13
2023-02-13T10:21:56.168Z,0.11
2023-02-13T10:23:35.894Z,0.18
2023-02-13T10:25:15.656Z,0.26
2023-02-13T10:26:55.412Z,0.27
2023-02-13T10:28:35.193Z,0.25
2023-02-13T10:31:54.702Z,0.31
2023-02-13T10:33:34.469Z,0.32
2023-02-13T10:35:14.222Z,0.09
2023-02-13T10:36:53.993Z,0.11
2023-02-13T10:38:33.778Z,0.11
2023-02-13T10:40:13.573Z,0.11
2023-02-13T10:41:53.336Z,0.11
2023-02-13T10:43:33.069Z,0.11
2023-02-13T10:45:12.906Z,0.11
2023-02-13T10:48:32.451Z,0.12
2023-02-13T10:50:12.285Z,0.15
2023-02-13T10:51:51.863Z,0.19
2023-02-13T10:53:31.642Z,0.26
2023-02-13T10:55:11.576Z,0.29
2023-02-13T10:56:51.201Z,0.11
2023-02-13T10:58:30.914Z,0.1
2023-02-13T11:00:10.888Z,0.09
2023-02-13T11:01:50.461Z,0.09
2023-02-13T11:03:30.238Z,0.09
2023-02-13T11:05:09.977Z,0.09
2023-02-13T11:06:49.763Z,0.09
2023-02-13T11:08:29.522Z,0.09
2023-02-13T11:10:09.280Z,0.09
2023-02-13T11:11:49.040Z,0.1
2023-02-13T11:13:28.794Z,0.1
2023-02-13T11:15:08.554Z,0.11
2023-02-13T11:16:48.332Z,0.15
2023-02-13T11:18:28.095Z,0.14
2023-02-13T11:21:47.632Z,0.15
2023-02-13T11:23:27.370Z,0.2
2023-02-13T11:25:07.154Z,0.21
2023-02-13T11:26:46.929Z,0.22
2023-02-13T11:28:26.671Z,0.23
2023-02-13T11:30:06.441Z,0.24
2023-02-13T11:31:46.210Z,0.07
2023-02-13T11:35:05.739Z,0.08
2023-02-13T11:38:25.263Z,0.09
2023-02-13T11:40:05.035Z,0.08
2023-02-13T11:41:44.782Z,0.08
2023-02-13T11:43:24.594Z,0.08
2023-02-13T11:45:04.324Z,0.08
2023-02-13T11:46:44.260Z,0.08
2023-02-13T11:48:24.016Z,0.08
2023-02-13T11:50:03.620Z,0.08
2023-02-13T11:51:43.370Z,0.08
2023-02-13T11:53:23.122Z,0.08
2023-02-13T11:55:02.902Z,0.08
2023-02-13T11:56:42.673Z,0.08
2023-02-13T11:58:22.427Z,0.08
2023-02-13T12:00:02.198Z,0.08
2023-02-13T12:01:41.996Z,0.08
2023-02-13T12:03:21.731Z,0.08
2023-02-13T12:05:01.499Z,0.07
2023-02-13T12:08:21.017Z,0.08
2023-02-13T12:15:00.072Z,0.08
2023-02-13T12:16:39.822Z,0.08
2023-02-13T12:18:19.602Z,0.07
2023-02-13T12:19:59.364Z,0.08
2023-02-13T12:24:58.840Z,0.07
2023-02-13T12:26:38.400Z,0.08
2023-02-13T12:28:18.358Z,0.07
2023-02-13T12:29:58.071Z,0.08
2023-02-13T12:31:37.874Z,0.08
2023-02-13T12:33:17.645Z,0.07
2023-02-13T12:34:57.371Z,0.07
2023-02-13T12:36:37.170Z,0.07
2023-02-13T12:38:17.039Z,0.07
2023-02-13T12:39:56.525Z,0.08
2023-02-13T12:41:36.430Z,0.07
2023-02-13T12:44:55.959Z,0.07
2023-02-13T12:46:35.735Z,0.07
2023-02-13T12:48:15.521Z,0.07
2023-02-13T12:49:55.282Z,0.07
2023-02-13T12:51:35.054Z,0.08
2023-02-13T12:53:14.697Z,0.08
2023-02-13T12:54:54.411Z,0.08
2023-02-13T12:56:34.296Z,0.07
2023-02-13T12:58:14.077Z,0.07
2023-02-13T13:01:33.464Z,0.07
2023-02-13T13:03:13.357Z,0.07
2023-02-13T13:04:53.190Z,0.07
2023-02-13T13:06:32.879Z,0.08
2023-02-13T13:08:12.692Z,0.08
2023-02-13T13:09:52.357Z,0.07
2023-02-13T13:11:32.214Z,0.07
2023-02-13T13:13:11.988Z,0.07
2023-02-13T13:14:51.738Z,0.06
2023-02-13T13:18:11.265Z,0.06
2023-02-13T13:19:51.111Z,0.07
2023-02-13T13:21:30.881Z,0.07
2023-02-13T13:23:10.580Z,0.07
2023-02-13T13:24:50.293Z,0.07
2023-02-13T13:26:30.109Z,0.07
2023-02-13T13:28:09.909Z,0.06
2023-02-13T13:29:49.645Z,0.07
2023-02-13T13:31:29.343Z,0.05
2023-02-13T13:33:09.135Z,0.05
2023-02-13T13:34:48.905Z,0.06
2023-02-13T13:36:28.784Z,0.06
2023-02-13T13:38:08.260Z,0.06
2023-02-13T13:39:48.235Z,0.06
2023-02-13T13:41:27.932Z,0.06
2023-02-13T13:43:07.751Z,0.05
2023-02-13T13:44:47.493Z,0.06
2023-02-13T13:46:27.231Z,0.06
2023-02-13T13:48:07.038Z,0.06
2023-02-13T13:51:26.456Z,0.06
2023-02-13T13:53:06.306Z,0.06
2023-02-13T13:54:46.101Z,0.06
2023-02-13T13:56:25.809Z,0.06
2023-02-13T13:58:05.700Z,0.06
2023-02-13T13:59:45.358Z,0.06
2023-02-13T14:01:25.098Z,0.06
2023-02-13T14:03:04.718Z,0.05
2023-02-13T14:04:44.549Z,0.05
2023-02-13T14:08:04.211Z,0.06
2023-02-13T14:09:43.910Z,0.06
2023-02-13T14:11:23.704Z,0.06
2023-02-13T14:13:03.473Z,0.06
2023-02-13T14:14:43.238Z,0.06
2023-02-13T14:16:22.994Z,0.07
2023-02-13T14:18:02.730Z,0.07
2023-02-13T14:19:42.390Z,0.07
2023-02-13T14:21:22.297Z,0.06
2023-02-13T14:23:02.036Z,0.08
2023-02-13T14:24:41.658Z,0.08
2023-02-13T14:26:21.545Z,0.05
2023-02-13T14:28:01.220Z,0.04
2023-02-13T14:29:41.035Z,0.05
2023-02-13T14:33:00.575Z,0.03
2023-02-13T14:34:40.315Z,0.08
2023-02-13T14:36:19.975Z,0.08
2023-02-13T14:37:59.732Z,0.11
2023-02-13T14:39:39.670Z,0.1
2023-02-13T14:41:19.259Z,0.1
2023-02-13T14:42:59.149Z,0.09
2023-02-13T14:44:38.887Z,0.1
2023-02-13T14:46:18.620Z,0.07
2023-02-13T14:47:58.408Z,0.08
2023-02-13T14:49:38.209Z,0.09
2023-02-13T14:51:17.883Z,0.08
2023-02-13T14:52:57.741Z,0.07
2023-02-13T14:54:37.533Z,0.07
2023-02-13T14:56:17.316Z,0.09
2023-02-13T14:57:57.071Z,0.08
2023-02-13T14:59:36.722Z,0.07
2023-02-13T15:01:16.569Z,0.09
2023-02-13T15:02:56.290Z,0.06
2023-02-13T15:04:36.117Z,0.06
2023-02-13T15:06:15.764Z,0.04
2023-02-13T15:07:55.569Z,0.03
2023-02-13T15:09:35.403Z,0.03
2023-02-13T15:11:15.146Z,0.03
2023-02-13T15:12:54.945Z,0.03
2023-02-13T15:14:34.745Z,0.03
2023-02-13T15:16:14.491Z,0.04
2023-02-13T15:17:54.112Z,0.02
2023-02-13T15:19:33.916Z,0.03
2023-02-13T15:21:13.636Z,0.04
2023-02-13T15:22:53.535Z,0.04
2023-02-13T15:24:33.212Z,0.04
2023-02-13T15:26:12.941Z,0.05
2023-02-13T15:27:52.841Z,0.04
2023-02-13T15:29:32.505Z,0.05
2023-02-13T15:31:12.260Z,0.05
2023-02-13T15:32:52.001Z,0.02
2023-02-13T15:34:31.789Z,0.04
2023-02-13T15:36:11.572Z,0.03
2023-02-13T15:37:51.353Z,0.02
2023-02-13T15:39:31.116Z,0.03
2023-02-13T15:41:10.894Z,0.01
2023-02-13T15:42:50.649Z,0
2023-02-13T15:44:30.446Z,0.01
2023-02-13T15:46:10.183Z,0.01
2023-02-13T15:47:50.022Z,0
2023-02-13T15:49:29.669Z,0.01
2023-02-13T15:51:09.516Z,0
2023-02-13T15:52:49.235Z,0
2023-02-13T15:54:29.052Z,0.01
2023-02-13T15:56:08.826Z,0
2023-02-13T15:57:48.513Z,0
2023-02-13T15:59:28.236Z,0
2023-02-13T16:01:08.101Z,0
2023-02-13T16:02:47.746Z,0
2023-02-13T16:04:27.653Z,0
2023-02-13T16:06:07.304Z,0
2023-02-13T16:07:47.056Z,0
2023-02-13T16:09:26.859Z,0
2023-02-13T16:11:06.534Z,0
2023-02-13T16:12:46.349Z,0
2023-02-13T16:14:26.091Z,0
2023-02-13T16:16:05.802Z,0
2023-02-13T16:17:45.660Z,0
2023-02-13T16:19:25.421Z,0
2023-02-13T16:21:05.119Z,0
2023-02-13T16:22:44.924Z,0
2023-02-13T16:24:24.627Z,0
2023-02-13T16:26:04.387Z,0
2023-02-13T16:27:44.171Z,0
2023-02-13T16:29:23.932Z,0
2023-02-13T16:31:03.835Z,0
2023-02-13T16:32:43.464Z,0
2023-02-13T16:34:23.266Z,0
2023-02-13T16:36:03.153Z,0
2023-02-13T16:37:42.755Z,0
2023-02-13T16:39:22.565Z,0
2023-02-13T16:41:02.331Z,0
2023-02-13T16:42:42.030Z,0
2023-02-13T16:44:21.974Z,0
2023-02-13T16:46:01.603Z,0
2023-02-13T16:47:41.336Z,0
2023-02-13T16:49:21.094Z,0
2023-02-13T16:51:00.867Z,0
2023-02-13T16:52:40.715Z,0
2023-02-13T16:54:20.394Z,0
2023-02-13T16:56:00.149Z,0
2023-02-13T16:57:40.063Z,0
2023-02-13T16:59:19.695Z,0
2023-02-13T17:00:59.505Z,0
2023-02-13T17:02:39.340Z,0
2023-02-13T17:04:18.972Z,0
2023-02-13T17:05:58.749Z,0
2023-02-13T17:07:38.569Z,0
2023-02-13T17:09:18.258Z,0
2023-02-13T17:10:58.104Z,0
2023-02-13T17:12:37.852Z,0
2023-02-13T17:14:17.544Z,0
2023-02-13T17:15:57.437Z,0
2023-02-13T17:17:37.154Z,0
2023-02-13T17:19:16.949Z,0
2023-02-13T17:20:56.605Z,0
2023-02-13T17:22:36.396Z,0
2023-02-13T17:24:16.135Z,0
2023-02-13T17:25:55.944Z,0
2023-02-13T17:27:35.728Z,0
2023-02-13T17:29:15.433Z,0
2023-02-13T17:30:55.243Z,0
2023-02-13T17:32:35.056Z,0
2023-02-13T17:34:14.774Z,0
2023-02-13T17:35:54.560Z,0
2023-02-13T17:37:34.270Z,0
2023-02-13T17:39:14.094Z,0
2023-02-13T17:40:53.795Z,0
2023-02-13T17:42:33.531Z,0
2023-02-13T17:44:13.294Z,0
2023-02-13T17:45:53.163Z,0
2023-02-13T17:47:32.851Z,0
2023-02-13T17:49:12.591Z,0
2023-02-13T17:50:52.433Z,0
2023-02-13T17:52:32.115Z,0
2023-02-13T17:54:11.891Z,0
2023-02-13T17:55:51.646Z,0
2023-02-13T17:57:31.415Z,0
2023-02-13T17:59:11.180Z,0
2023-02-13T18:00:51.009Z,0
2023-02-13T18:02:30.710Z,0
2023-02-13T18:04:10.480Z,0
2023-02-13T18:05:50.238Z,0
2023-02-13T18:07:30.012Z,0
2023-02-13T18:09:09.748Z,0
2023-02-13T18:10:49.551Z,0
2023-02-13T18:12:29.309Z,0
2023-02-13T18:14:09.047Z,0
2023-02-13T18:15:48.825Z,0
2023-02-13T18:17:28.580Z,0
2023-02-13T18:19:08.345Z,0
2023-02-13T18:20:48.170Z,0
2023-02-13T18:22:27.872Z,0
2023-02-13T18:24:07.625Z,0
2023-02-13T18:25:47.409Z,0
2023-02-13T18:27:27.170Z,0
2023-02-13T18:29:06.984Z,0
2023-02-13T18:30:46.761Z,0
2023-02-13T18:32:26.581Z,0
2023-02-13T18:34:06.262Z,0
2023-02-13T18:35:46.027Z,0
2023-02-13T18:37:25.792Z,0
2023-02-13T18:39:05.556Z,0
2023-02-13T18:40:45.268Z,0
2023-02-13T18:42:25.050Z,0
2023-02-13T18:44:04.870Z,0
2023-02-13T18:45:44.555Z,0
2023-02-13T18:47:24.333Z,0
2023-02-13T18:49:04.076Z,0
2023-02-13T18:50:43.849Z,0
2023-02-13T18:52:23.749Z,0
2023-02-13T18:54:03.437Z,0
2023-02-13T18:55:43.140Z,0
2023-02-13T18:57:22.942Z,0
2023-02-13T18:59:02.657Z,0
2023-02-13T19:00:42.434Z,0
2023-02-13T19:02:22.196Z,0
2023-02-13T19:04:02.012Z,0
2023-02-13T19:05:41.714Z,0
2023-02-13T19:07:21.501Z,0
2023-02-13T19:09:01.458Z,0
2023-02-13T19:10:41.064Z,0
2023-02-13T19:12:20.835Z,0
2023-02-13T19:14:00.544Z,0
2023-02-13T19:15:40.328Z,0
2023-02-13T19:17:20.113Z,0
2023-02-13T19:18:59.917Z,0
2023-02-13T19:20:39.592Z,0
2023-02-13T19:22:19.460Z,0
2023-02-13T19:23:59.177Z,0
2023-02-13T19:25:38.889Z,0
2023-02-13T19:27:18.725Z,0
2023-02-13T19:28:58.442Z,0
2023-02-13T19:30:38.192Z,0
2023-02-13T19:32:18.015Z,0
2023-02-13T19:33:57.719Z,0
2023-02-13T19:35:37.488Z,0
2023-02-13T19:37:17.346Z,0
2023-02-13T19:38:57.027Z,0
2023-02-13T19:40:36.848Z,0
2023-02-13T19:42:16.557Z,0
2023-02-13T19:43:56.334Z,0
2023-02-13T19:45:36.074Z,0
2023-02-13T19:47:15.894Z,0
2023-02-13T19:48:55.585Z,0
2023-02-13T19:50:35.358Z,0
2023-02-13T19:52:15.135Z,0
2023-02-13T19:53:54.870Z,0
2023-02-13T19:55:34.653Z,0
2023-02-13T19:57:14.419Z,0
2023-02-13T19:58:54.176Z,0
2023-02-13T20:00:33.974Z,0
2023-02-13T20:02:13.715Z,0
2023-02-13T20:03:53.489Z,0
2023-02-13T20:05:33.235Z,0
2023-02-13T20:07:13.006Z,0
2023-02-13T20:08:52.768Z,0
2023-02-13T20:10:32.508Z,0
2023-02-13T20:12:12.301Z,0
2023-02-13T20:13:52.085Z,0
2023-02-13T20:15:31.808Z,0
2023-02-13T20:17:11.571Z,0
2023-02-13T20:18:51.333Z,0
2023-02-13T20:20:31.184Z,0
2023-02-13T20:22:11.026Z,0
2023-02-13T20:23:50.836Z,0
2023-02-13T20:25:30.603Z,0
2023-02-13T20:27:10.296Z,0
2023-02-13T20:28:50.106Z,0
2023-02-13T20:30:29.826Z,0
2023-02-13T20:32:09.554Z,0
2023-02-13T20:33:49.400Z,0
2023-02-13T20:35:29.106Z,0
2023-02-13T20:37:08.895Z,0
2023-02-13T20:38:48.664Z,0
2023-02-13T20:40:28.467Z,0
2023-02-13T20:42:08.058Z,0
2023-02-13T20:43:47.934Z,0
2023-02-13T20:45:27.683Z,0
2023-02-13T20:47:07.506Z,0
2023-02-13T20:48:47.204Z,0
2023-02-13T20:50:27.003Z,0
2023-02-13T20:52:06.804Z,0
2023-02-13T20:53:46.545Z,0
2023-02-13T20:55:26.301Z,0
2023-02-13T20:57:06.074Z,0
2023-02-13T20:58:45.822Z,0
2023-02-13T21:00:25.637Z,0
2023-02-13T21:02:05.385Z,0
2023-02-13T21:03:44.963Z,0
2023-02-13T21:05:24.864Z,0
2023-02-13T21:07:04.549Z,0
2023-02-13T21:08:44.245Z,0
2023-02-13T21:10:24.082Z,0
2023-02-13T21:12:03.786Z,0
2023-02-13T21:13:43.552Z,0
2023-02-13T21:15:23.298Z,0
2023-02-13T21:17:03.074Z,0
2023-02-13T21:18:42.834Z,0
2023-02-13T21:20:22.582Z,0
2023-02-13T21:22:02.376Z,0
2023-02-13T21:23:42.113Z,0
2023-02-13T21:25:21.881Z,0
2023-02-13T21:27:01.654Z,0
2023-02-13T21:28:41.428Z,0
2023-02-13T21:30:21.180Z,0
2023-02-13T21:32:00.982Z,0
2023-02-13T21:33:40.707Z,0
2023-02-13T21:35:20.477Z,0
2023-02-13T21:37:00.251Z,0
2023-02-13T21:38:40.000Z,0
2023-02-13T21:40:19.769Z,0
2023-02-13T21:41:59.542Z,0
2023-02-13T21:43:39.300Z,0
2023-02-13T21:45:19.090Z,0
2023-02-13T21:46:58.834Z,0
2023-02-13T21:48:38.585Z,0
2023-02-13T21:50:18.420Z,0
2023-02-13T21:51:58.121Z,0
2023-02-13T21:53:37.876Z,0
2023-02-13T21:55:17.632Z,0
2023-02-13T21:56:57.411Z,0
2023-02-13T21:58:37.178Z,0
2023-02-13T22:00:16.932Z,0
2023-02-13T22:01:56.704Z,0
2023-02-13T22:03:36.468Z,0
2023-02-13T22:05:16.230Z,0
2023-02-13T22:06:56.011Z,0
2023-02-13T22:08:35.756Z,0
2023-02-13T22:10:15.507Z,0
2023-02-13T22:11:55.295Z,0
2023-02-13T22:13:35.046Z,0
2023-02-13T22:15:14.850Z,0
2023-02-13T22:16:54.560Z,0
2023-02-13T22:18:34.341Z,0
2023-02-13T22:20:14.097Z,0
2023-02-13T22:21:53.873Z,0
2023-02-13T22:23:33.644Z,0
2023-02-13T22:25:13.411Z,0
2023-02-13T22:26:53.169Z,0
2023-02-13T22:28:32.922Z,0
2023-02-13T22:30:12.692Z,0
2023-02-13T22:31:52.467Z,0
2023-02-13T22:33:32.223Z,0
2023-02-13T22:35:11.965Z,0
2023-02-13T22:36:51.779Z,0
2023-02-13T22:38:31.552Z,0
2023-02-13T22:40:11.271Z,0
2023-02-13T22:41:51.050Z,0
2023-02-13T22:43:30.800Z,0
2023-02-13T22:45:10.558Z,0
2023-02-13T22:46:50.334Z,0
2023-02-13T22:48:30.094Z,0
2023-02-13T22:50:09.884Z,0
2023-02-13T22:51:49.632Z,0
2023-02-13T22:53:29.364Z,0
2023-02-13T22:55:09.144Z,0
2023-02-13T22:56:48.912Z,0
2023-02-13T22:58:28.662Z,0
2023-02-13T23:00:08.427Z,0
2023-02-13T23:01:48.200Z,0
2023-02-13T23:03:27.953Z,0
2023-02-13T23:05:07.724Z,0
2023-02-13T23:06:47.482Z,0
2023-02-13T23:08:27.248Z,0
2023-02-13T23:10:07.005Z,0
2023-02-13T23:11:46.849Z,0
2023-02-13T23:13:26.531Z,0
2023-02-13T23:15:06.309Z,0
2023-02-13T23:16:46.064Z,0
2023-02-13T23:18:25.831Z,0
2023-02-13T23:20:05.641Z,0
2023-02-13T23:21:45.362Z,0
2023-02-13T23:23:25.128Z,0
2023-02-13T23:25:04.879Z,0
2023-02-13T23:26:44.697Z,0
2023-02-13T23:28:24.419Z,0
2023-02-13T23:30:04.164Z,0
2023-02-13T23:31:43.946Z,0
2023-02-13T23:33:23.713Z,0
2023-02-13T23:35:03.470Z,0
2023-02-13T23:36:43.228Z,0
2023-02-13T23:38:22.992Z,0
2023-02-13T23:40:02.753Z,0
2023-02-13T23:41:42.521Z,0
2023-02-13T23:43:22.287Z,0
2023-02-13T23:45:02.051Z,0
2023-02-13T23:46:41.805Z,0
2023-02-13T23:48:21.591Z,0
2023-02-13T23:50:01.338Z,0
2023-02-13T23:51:41.090Z,0
2023-02-13T23:53:20.851Z,0
2023-02-13T23:55:00.635Z,0
2023-02-13T23:56:40.434Z,0
2023-02-13T23:58:20.167Z,0
2023-02-13T23:59:59.901Z,0
